Time;durP1;ratioP1;P1;durP2;ratioP2;P2;SDS_P1;SDS_P2;PMS_P1;PMS_P2;Temp;Humidity;BMP_temperature;BMP_pressure;BME280_temperature;BME280_humidity;BME280_pressure;Samples;Min_cycle;Max_cycle;Signal;HPM_P1;HPM_P2
2021/10/17 00:00:33;;;;;;;7.47;2.67;;;;;;;;;;4993866;28;20183;-72
2021/10/17 00:03:37;;;;;;;5.17;2.37;;;;;;;;;;4981604;28;20205;-72
2021/10/17 00:06:42;;;;;;;4.73;2.70;;;;;;;;;;4993547;28;20657;-72
2021/10/17 00:09:46;;;;;;;2.83;2.53;;;;;;;;;;4993454;28;20222;-72
2021/10/17 00:12:55;;;;;;;3.47;2.80;;;;;;;;;;4981557;28;20214;-72
2021/10/17 00:15:59;;;;;;;5.40;2.70;;;;;;;;;;4981902;28;20527;-72
2021/10/17 00:19:03;;;;;;;5.03;2.93;;;;;;;;;;4981741;28;20178;-72
2021/10/17 00:22:07;;;;;;;4.50;2.87;;;;;;;;;;4993669;28;20214;-72
2021/10/17 00:25:12;;;;;;;5.03;3.40;;;;;;;;;;4993715;28;20182;-72
2021/10/17 00:28:16;;;;;;;3.20;2.50;;;;;;;;;;4993565;28;20190;-72
2021/10/17 00:31:27;;;;;;;3.63;2.87;;;;;;;;;;4982342;28;20222;-72
2021/10/17 00:34:31;;;;;;;7.40;4.03;;;;;;;;;;4985472;28;20198;-72
2021/10/17 00:37:36;;;;;;;6.70;3.80;;;;;;;;;;4985372;28;20186;-72
2021/10/17 00:40:40;;;;;;;5.73;3.87;;;;;;;;;;4985140;28;20218;-72
2021/10/17 00:43:45;;;;;;;4.30;3.40;;;;;;;;;;4996967;28;20201;-72
2021/10/17 00:46:50;;;;;;;4.33;3.60;;;;;;;;;;4997053;28;20202;-72
2021/10/17 00:49:54;;;;;;;7.93;4.20;;;;;;;;;;4985111;28;20210;-72
2021/10/17 00:52:59;;;;;;;6.33;3.73;;;;;;;;;;4984963;28;20205;-72
2021/10/17 00:56:03;;;;;;;4.90;3.73;;;;;;;;;;4995913;28;20186;-72
2021/10/17 00:59:08;;;;;;;4.27;3.47;;;;;;;;;;4973683;28;20182;-72
2021/10/17 01:02:13;;;;;;;4.93;3.40;;;;;;;;;;4973507;28;20222;-72
2021/10/17 01:05:17;;;;;;;3.97;3.33;;;;;;;;;;4962812;28;20191;-72
2021/10/17 01:08:22;;;;;;;5.47;3.50;;;;;;;;;;4984586;28;20190;-72
2021/10/17 01:11:45;;;;;;;9.90;4.63;;;;;;;;;;4973503;28;20558;-72
2021/10/17 01:14:51;;;;;;;4.47;3.63;;;;;;;;;;4984596;28;20550;-72
2021/10/17 01:17:56;;;;;;;6.50;4.03;;;;;;;;;;4984342;28;20206;-72
2021/10/17 01:21:01;;;;;;;5.20;3.40;;;;;;;;;;4984482;28;20624;-72
2021/10/17 01:24:07;;;;;;;5.37;3.70;;;;;;;;;;4984426;28;20178;-72
2021/10/17 01:27:11;;;;;;;6.47;3.97;;;;;;;;;;4984747;28;21084;-72
2021/10/17 01:30:17;;;;;;;5.53;3.70;;;;;;;;;;4984260;28;20585;-71
2021/10/17 01:33:23;;;;;;;5.27;3.67;;;;;;;;;;4984117;28;20557;-72
2021/10/17 01:36:28;;;;;;;4.67;3.73;;;;;;;;;;4984326;28;20190;-72
2021/10/17 01:39:32;;;;;;;4.53;3.10;;;;;;;;;;4984017;28;20546;-72
2021/10/17 01:42:36;;;;;;;5.77;3.57;;;;;;;;;;4983745;28;20616;-72
2021/10/17 01:45:40;;;;;;;3.67;3.30;;;;;;;;;;4995794;28;20612;-72
2021/10/17 01:48:44;;;;;;;5.80;4.23;;;;;;;;;;4983912;28;20601;-72
2021/10/17 01:51:49;;;;;;;4.33;3.70;;;;;;;;;;4983774;28;20625;-72
2021/10/17 01:54:53;;;;;;;4.43;3.40;;;;;;;;;;4995683;28;20179;-72
2021/10/17 01:57:59;;;;;;;5.57;3.83;;;;;;;;;;4983915;28;20546;-72
2021/10/17 02:01:04;;;;;;;5.03;3.80;;;;;;;;;;4972694;28;20624;-72
2021/10/17 02:04:08;;;;;;;5.27;4.10;;;;;;;;;;4995389;28;20940;-72
2021/10/17 02:07:13;;;;;;;5.30;4.23;;;;;;;;;;4983387;28;20941;-72
2021/10/17 02:10:17;;;;;;;5.37;4.00;;;;;;;;;;4995416;28;21144;-72
2021/10/17 02:13:21;;;;;;;5.07;3.87;;;;;;;;;;4983402;28;20608;-72
2021/10/17 02:16:26;;;;;;;4.53;3.80;;;;;;;;;;4983291;28;20597;-72
2021/10/17 02:19:30;;;;;;;4.70;3.80;;;;;;;;;;4972300;28;20538;-71
2021/10/17 02:22:34;;;;;;;6.77;3.40;;;;;;;;;;4983102;28;20612;-72
2021/10/17 02:25:39;;;;;;;4.50;3.60;;;;;;;;;;4983120;28;20601;-72
2021/10/17 02:28:43;;;;;;;9.63;3.83;;;;;;;;;;4983305;28;20546;-72
2021/10/17 02:31:47;;;;;;;5.50;3.60;;;;;;;;;;4972107;28;20625;-72
2021/10/17 02:34:51;;;;;;;6.73;3.80;;;;;;;;;;4972181;28;21068;-71
2021/10/17 02:37:55;;;;;;;4.97;3.70;;;;;;;;;;4983099;28;21112;-72
2021/10/17 02:41:00;;;;;;;6.50;4.00;;;;;;;;;;4983005;28;20613;-72
2021/10/17 02:44:04;;;;;;;5.93;3.70;;;;;;;;;;4983080;28;20546;-72
2021/10/17 02:47:08;;;;;;;5.20;3.90;;;;;;;;;;4971912;28;20918;-72
2021/10/17 02:50:15;;;;;;;6.70;4.37;;;;;;;;;;4993600;28;20934;-72
2021/10/17 02:53:19;;;;;;;6.47;4.17;;;;;;;;;;4998023;23;20616;-75
2021/10/17 02:56:24;;;;;;;6.60;4.30;;;;;;;;;;4970539;28;20636;-75
2021/10/17 02:59:28;;;;;;;6.07;3.90;;;;;;;;;;4982853;28;20593;-75
2021/10/17 03:02:33;;;;;;;6.00;4.73;;;;;;;;;;4971280;28;20628;-75
2021/10/17 03:05:37;;;;;;;5.57;4.37;;;;;;;;;;5005128;28;20545;-76
2021/10/17 03:08:42;;;;;;;7.83;4.47;;;;;;;;;;5004895;28;20554;-76
2021/10/17 03:11:47;;;;;;;4.30;3.90;;;;;;;;;;5004682;28;20613;-75
2021/10/17 03:14:51;;;;;;;5.03;4.00;;;;;;;;;;5004983;28;20546;-76
2021/10/17 03:17:55;;;;;;;5.37;4.23;;;;;;;;;;5004813;28;20885;-76
2021/10/17 03:21:01;;;;;;;9.40;4.27;;;;;;;;;;4989625;28;20636;-76
2021/10/17 03:24:05;;;;;;;5.43;4.20;;;;;;;;;;4982196;28;20558;-75
2021/10/17 03:27:09;;;;;;;6.10;4.00;;;;;;;;;;5004764;28;20542;-76
2021/10/17 03:30:16;;;;;;;6.10;4.30;;;;;;;;;;4992699;28;20996;-75
2021/10/17 03:33:22;;;;;;;5.87;4.50;;;;;;;;;;4993217;28;20561;-76
2021/10/17 03:36:36;;;;;;;7.17;4.47;;;;;;;;;;4973951;28;20543;-75
2021/10/17 03:39:40;;;;;;;12.37;4.73;;;;;;;;;;4968958;28;20590;-75
2021/10/17 03:42:44;;;;;;;7.13;4.80;;;;;;;;;;4982086;28;20534;-76
2021/10/17 03:45:49;;;;;;;6.83;4.23;;;;;;;;;;4982037;28;20885;-75
2021/10/17 03:48:53;;;;;;;4.90;3.70;;;;;;;;;;4981507;28;20925;-76
2021/10/17 03:52:00;;;;;;;6.00;3.63;;;;;;;;;;4976206;28;20641;-76
2021/10/17 03:55:05;;;;;;;5.20;4.43;;;;;;;;;;4992590;28;20637;-76
2021/10/17 03:58:09;;;;;;;5.13;4.03;;;;;;;;;;4981713;28;20546;-75
2021/10/17 04:01:13;;;;;;;6.00;4.40;;;;;;;;;;4981263;28;20640;-75
2021/10/17 04:04:17;;;;;;;6.33;4.93;;;;;;;;;;4981967;28;20538;-75
2021/10/17 04:07:21;;;;;;;6.27;4.27;;;;;;;;;;4998160;28;20549;-75
2021/10/17 04:10:25;;;;;;;6.30;4.60;;;;;;;;;;4996929;28;20933;-76
2021/10/17 04:13:31;;;;;;;6.50;4.07;;;;;;;;;;4997049;28;20542;-75
2021/10/17 04:16:37;;;;;;;6.90;4.73;;;;;;;;;;4985355;28;20545;-75
2021/10/17 04:19:41;;;;;;;7.73;4.17;;;;;;;;;;4985732;28;20538;-76
2021/10/17 04:22:46;;;;;;;8.40;5.30;;;;;;;;;;4996788;28;20549;-75
2021/10/17 04:25:50;;;;;;;8.23;5.27;;;;;;;;;;4985643;28;21079;-75
2021/10/17 04:28:56;;;;;;;9.30;5.70;;;;;;;;;;4996742;28;20542;-75
2021/10/17 04:32:00;;;;;;;8.50;6.07;;;;;;;;;;4985221;28;20621;-75
2021/10/17 04:35:05;;;;;;;8.57;5.63;;;;;;;;;;4985058;28;20609;-75
2021/10/17 04:38:10;;;;;;;7.97;5.97;;;;;;;;;;4985230;28;20604;-76
2021/10/17 04:41:14;;;;;;;9.33;5.53;;;;;;;;;;4984950;28;20612;-76
2021/10/17 04:44:18;;;;;;;8.17;5.63;;;;;;;;;;4984960;28;20537;-75
2021/10/17 04:47:23;;;;;;;7.90;6.10;;;;;;;;;;4984968;28;20545;-75
2021/10/17 04:50:26;;;;;;;9.23;6.20;;;;;;;;;;4985071;28;21127;-75
2021/10/17 04:53:30;;;;;;;7.87;6.00;;;;;;;;;;4996849;28;20565;-76
2021/10/17 04:56:34;;;;;;;8.90;5.57;;;;;;;;;;4996282;28;20545;-76
2021/10/17 04:59:38;;;;;;;7.27;5.73;;;;;;;;;;4985321;28;20538;-75
2021/10/17 05:02:42;;;;;;;8.33;6.27;;;;;;;;;;4996034;28;20541;-75
2021/10/17 05:05:46;;;;;;;9.23;6.37;;;;;;;;;;4995873;28;20541;-76
2021/10/17 05:08:50;;;;;;;7.83;5.90;;;;;;;;;;4995976;28;20557;-76
2021/10/17 05:11:55;;;;;;;8.80;6.37;;;;;;;;;;4995806;28;20657;-76
2021/10/17 05:14:59;;;;;;;9.70;6.30;;;;;;;;;;4996629;28;20545;-76
2021/10/17 05:18:03;;;;;;;12.07;7.23;;;;;;;;;;4994821;28;20553;-75
2021/10/17 05:21:08;;;;;;;14.20;7.43;;;;;;;;;;4973329;28;20620;-76
2021/10/17 05:24:12;;;;;;;11.03;7.33;;;;;;;;;;4984311;28;20557;-76
2021/10/17 05:27:17;;;;;;;12.07;8.57;;;;;;;;;;4995345;28;21076;-75
2021/10/17 05:30:23;;;;;;;13.40;8.47;;;;;;;;;;5006526;28;20941;-75
2021/10/17 05:33:27;;;;;;;16.13;10.27;;;;;;;;;;4995309;28;20546;-75
2021/10/17 05:36:31;;;;;;;15.70;10.37;;;;;;;;;;4984582;28;20549;-76
2021/10/17 05:39:36;;;;;;;15.43;10.40;;;;;;;;;;4984048;28;20187;-75
2021/10/17 05:42:40;;;;;;;16.53;11.60;;;;;;;;;;4973490;28;20608;-76
2021/10/17 05:45:45;;;;;;;16.53;10.77;;;;;;;;;;4983931;28;20209;-76
2021/10/17 05:48:50;;;;;;;18.10;11.97;;;;;;;;;;4994977;28;20213;-76
2021/10/17 05:51:54;;;;;;;20.20;12.80;;;;;;;;;;4983736;28;20234;-76
2021/10/17 05:54:58;;;;;;;23.27;14.07;;;;;;;;;;4983509;28;20225;-76
2021/10/17 05:58:03;;;;;;;25.17;14.33;;;;;;;;;;4961609;28;20206;-76
2021/10/17 06:01:08;;;;;;;26.27;14.17;;;;;;;;;;4994900;28;20229;-76
2021/10/17 06:04:18;;;;;;;23.47;14.10;;;;;;;;;;4994761;28;20185;-75
2021/10/17 06:07:42;;;;;;;24.30;14.87;;;;;;;;;;4994885;28;20186;-75
2021/10/17 06:10:46;;;;;;;25.83;14.80;;;;;;;;;;4983570;28;20605;-76
2021/10/17 06:13:51;;;;;;;24.63;14.83;;;;;;;;;;4983595;28;20197;-76
2021/10/17 06:16:55;;;;;;;36.10;14.30;;;;;;;;;;4994451;28;20211;-75
2021/10/17 06:19:59;;;;;;;23.67;14.23;;;;;;;;;;4994451;28;20197;-76
2021/10/17 06:23:03;;;;;;;26.73;13.97;;;;;;;;;;4994594;28;20192;-76
2021/10/17 06:26:08;;;;;;;42.10;15.10;;;;;;;;;;4994610;28;20193;-76
2021/10/17 06:29:13;;;;;;;19.97;14.10;;;;;;;;;;4993196;28;20569;-75
2021/10/17 06:32:18;;;;;;;24.23;14.90;;;;;;;;;;4982965;28;20241;-76
2021/10/17 06:35:23;;;;;;;18.90;14.27;;;;;;;;;;4994418;28;20198;-76
2021/10/17 06:38:27;;;;;;;23.73;13.97;;;;;;;;;;4982855;28;20178;-75
2021/10/17 06:41:31;;;;;;;54.50;13.73;;;;;;;;;;5005499;28;20229;-76
2021/10/17 06:44:36;;;;;;;24.17;12.40;;;;;;;;;;4994301;28;20189;-75
2021/10/17 06:47:40;;;;;;;17.77;12.50;;;;;;;;;;4982947;28;20190;-76
2021/10/17 06:50:44;;;;;;;17.20;13.60;;;;;;;;;;4994013;28;20590;-76
2021/10/17 06:53:48;;;;;;;20.10;12.30;;;;;;;;;;4982655;28;20209;-76
2021/10/17 06:56:55;;;;;;;18.70;12.83;;;;;;;;;;4994307;28;20657;-76
2021/10/17 06:59:59;;;;;;;34.60;11.80;;;;;;;;;;4982478;28;20206;-75
2021/10/17 07:03:04;;;;;;;14.17;10.90;;;;;;;;;;4993617;28;20209;-75
2021/10/17 07:06:13;;;;;;;25.73;11.57;;;;;;;;;;4993508;28;20656;-75
2021/10/17 07:09:21;;;;;;;31.83;11.97;;;;;;;;;;4993573;28;20251;-76
2021/10/17 07:12:30;;;;;;;22.93;11.47;;;;;;;;;;4993615;28;20241;-76
2021/10/17 07:15:34;;;;;;;22.10;11.50;;;;;;;;;;4993755;28;20201;-75
2021/10/17 07:18:38;;;;;;;17.53;11.57;;;;;;;;;;4993441;28;20549;-76
2021/10/17 07:21:43;;;;;;;21.57;11.30;;;;;;;;;;4993328;28;20223;-75
2021/10/17 07:24:47;;;;;;;13.50;10.83;;;;;;;;;;4982088;28;20553;-76
2021/10/17 07:27:54;;;;;;;14.37;11.60;;;;;;;;;;5004760;28;20197;-76
2021/10/17 07:30:59;;;;;;;15.90;11.70;;;;;;;;;;4993316;28;20241;-75
2021/10/17 07:34:06;;;;;;;15.57;11.63;;;;;;;;;;4993081;28;20190;-76
2021/10/17 07:37:11;;;;;;;15.73;11.80;;;;;;;;;;4982241;28;20189;-76
2021/10/17 07:40:16;;;;;;;17.93;13.00;;;;;;;;;;4981884;28;20553;-76
2021/10/17 07:43:23;;;;;;;22.97;13.10;;;;;;;;;;4971549;28;20186;-76
2021/10/17 07:46:28;;;;;;;17.27;11.97;;;;;;;;;;4993313;28;20195;-76
2021/10/17 07:49:32;;;;;;;22.03;12.33;;;;;;;;;;4971158;28;20186;-76
2021/10/17 07:52:37;;;;;;;22.87;12.70;;;;;;;;;;4981697;28;20217;-76
2021/10/17 07:55:49;;;;;;;26.63;12.60;;;;;;;;;;4982051;28;20210;-76
2021/10/17 07:58:59;;;;;;;24.23;12.13;;;;;;;;;;4970825;28;20711;-76
2021/10/17 08:02:07;;;;;;;25.20;12.23;;;;;;;;;;4981597;28;20230;-75
2021/10/17 08:05:16;;;;;;;27.00;12.80;;;;;;;;;;4981993;28;20195;-76
2021/10/17 08:08:20;;;;;;;23.47;12.73;;;;;;;;;;4981779;28;20670;-76
2021/10/17 08:11:24;;;;;;;30.17;13.00;;;;;;;;;;4992795;28;20229;-76
2021/10/17 08:14:30;;;;;;;30.43;18.17;;;;;;;;;;4982150;28;20194;-76
2021/10/17 08:17:34;;;;;;;19.47;13.57;;;;;;;;;;4982033;28;20565;-76
2021/10/17 08:20:51;;;;;;;54.80;14.20;;;;;;;;;;4993835;28;20226;-76
2021/10/17 08:23:55;;;;;;;16.83;12.90;;;;;;;;;;4981652;28;20193;-76
2021/10/17 08:27:00;;;;;;;27.17;13.80;;;;;;;;;;4993746;28;20197;-75
2021/10/17 08:30:10;;;;;;;62.67;14.03;;;;;;;;;;4992881;28;20692;-75
2021/10/17 08:33:21;;;;;;;19.77;14.57;;;;;;;;;;4992609;28;20547;-76
2021/10/17 08:36:25;;;;;;;22.23;12.67;;;;;;;;;;4992579;28;20560;-75
2021/10/17 08:39:31;;;;;;;24.20;13.67;;;;;;;;;;4992612;28;20197;-76
2021/10/17 08:42:36;;;;;;;19.93;15.23;;;;;;;;;;4992386;28;20585;-75
2021/10/17 08:45:52;;;;;;;53.93;14.23;;;;;;;;;;4982013;28;20635;-75
2021/10/17 08:48:59;;;;;;;16.43;12.90;;;;;;;;;;4981500;28;20692;-76
2021/10/17 08:52:10;;;;;;;29.53;13.97;;;;;;;;;;4992992;28;20235;-76
2021/10/17 08:55:14;;;;;;;22.73;13.93;;;;;;;;;;5030012;23;20249;-76
2021/10/17 08:58:21;;;;;;;19.73;15.17;;;;;;;;;;5024275;28;20691;-76
2021/10/17 09:01:33;;;;;;;19.00;14.40;;;;;;;;;;5013034;28;20562;-76
2021/10/17 09:04:38;;;;;;;29.70;14.13;;;;;;;;;;5024204;28;20198;-76
2021/10/17 09:07:58;;;;;;;19.30;14.87;;;;;;;;;;5014977;28;20194;-76
2021/10/17 09:11:39;;;;;;;22.93;15.73;;;;;;;;;;5023820;28;20711;-75
2021/10/17 09:14:43;;;;;;;19.30;14.00;;;;;;;;;;5036149;28;20657;-76
2021/10/17 09:18:17;;;;;;;18.97;13.50;;;;;;;;;;5023571;28;20176;-76
2021/10/17 09:21:21;;;;;;;24.13;15.30;;;;;;;;;;5035812;28;20231;-76
2021/10/17 09:24:27;;;;;;;20.63;14.50;;;;;;;;;;5035691;28;20188;-76
2021/10/17 09:27:31;;;;;;;21.23;15.83;;;;;;;;;;5036218;28;20192;-76
2021/10/17 09:30:35;;;;;;;21.17;15.37;;;;;;;;;;5012001;28;20189;-77
2021/10/17 09:33:57;;;;;;;22.60;14.33;;;;;;;;;;5012199;28;20168;-76
2021/10/17 09:37:13;;;;;;;20.13;15.10;;;;;;;;;;5023355;28;20200;-76
2021/10/17 09:40:49;;;;;;;19.93;14.57;;;;;;;;;;5013228;28;20603;-76
2021/10/17 09:44:00;;;;;;;20.93;14.87;;;;;;;;;;5023174;28;20200;-77
2021/10/17 09:47:18;;;;;;;18.23;14.13;;;;;;;;;;5023308;28;20192;-76
2021/10/17 09:50:22;;;;;;;19.83;15.30;;;;;;;;;;5023025;28;20368;-76
2021/10/17 09:53:44;;;;;;;22.27;16.70;;;;;;;;;;5023086;28;20666;-76
2021/10/17 09:56:48;;;;;;;22.27;15.37;;;;;;;;;;5023159;28;20192;-76
2021/10/17 09:59:52;;;;;;;20.07;15.20;;;;;;;;;;5023125;28;20192;-76
2021/10/17 10:02:57;;;;;;;20.43;15.53;;;;;;;;;;5034847;28;20192;-76
2021/10/17 10:06:01;;;;;;;20.40;15.23;;;;;;;;;;5035180;28;20196;-76
2021/10/17 10:09:08;;;;;;;16.97;14.47;;;;;;;;;;5022681;28;20196;-76
2021/10/17 10:12:15;;;;;;;22.57;16.73;;;;;;;;;;5022952;28;20235;-76
2021/10/17 10:15:20;;;;;;;18.23;14.30;;;;;;;;;;5034663;28;20204;-76
2021/10/17 10:18:27;;;;;;;20.63;14.80;;;;;;;;;;5000202;28;20180;-76
2021/10/17 10:21:32;;;;;;;18.20;13.50;;;;;;;;;;5034631;28;20223;-77
2021/10/17 10:24:36;;;;;;;16.43;13.50;;;;;;;;;;5034615;28;20543;-76
2021/10/17 10:27:41;;;;;;;17.50;14.17;;;;;;;;;;5022568;28;20655;-76
2021/10/17 10:30:46;;;;;;;20.37;15.23;;;;;;;;;;5011176;28;20224;-76
2021/10/17 10:33:51;;;;;;;19.23;15.13;;;;;;;;;;5034636;28;20188;-77
2021/10/17 10:37:10;;;;;;;16.87;13.60;;;;;;;;;;5011131;28;20690;-76
2021/10/17 10:40:17;;;;;;;18.17;14.60;;;;;;;;;;5022363;28;20196;-77
2021/10/17 10:43:33;;;;;;;17.13;14.17;;;;;;;;;;5034492;28;20184;-76
2021/10/17 10:46:37;;;;;;;17.87;14.47;;;;;;;;;;5034132;28;20199;-77
2021/10/17 10:49:45;;;;;;;17.20;13.70;;;;;;;;;;5010727;28;20199;-77
2021/10/17 10:52:49;;;;;;;17.83;13.70;;;;;;;;;;5034404;28;20211;-76
2021/10/17 10:55:53;;;;;;;18.00;14.80;;;;;;;;;;5021814;28;20223;-76
2021/10/17 10:58:57;;;;;;;16.10;13.03;;;;;;;;;;5021461;28;20200;-76
2021/10/17 11:02:10;;;;;;;15.73;13.57;;;;;;;;;;5021652;28;20219;-76
2021/10/17 11:05:16;;;;;;;14.00;12.50;;;;;;;;;;5034075;28;20197;-77
2021/10/17 11:08:20;;;;;;;14.33;12.47;;;;;;;;;;5033907;28;20188;-77
2021/10/17 11:11:39;;;;;;;16.83;13.27;;;;;;;;;;5033646;28;20227;-77
2021/10/17 11:14:42;;;;;;;14.10;12.30;;;;;;;;;;5033686;28;20196;-77
2021/10/17 11:17:54;;;;;;;15.83;13.80;;;;;;;;;;5021614;28;20552;-77
2021/10/17 11:21:00;;;;;;;15.17;13.50;;;;;;;;;;5021327;28;20232;-77
2021/10/17 11:24:05;;;;;;;15.37;12.70;;;;;;;;;;5033556;28;20188;-77
2021/10/17 11:27:13;;;;;;;14.70;12.77;;;;;;;;;;5033464;28;20188;-77
2021/10/17 11:30:25;;;;;;;13.90;12.30;;;;;;;;;;5014005;28;20192;-76
2021/10/17 11:33:30;;;;;;;15.93;13.07;;;;;;;;;;5009834;28;20691;-77
2021/10/17 11:36:34;;;;;;;16.00;13.43;;;;;;;;;;5021382;28;20192;-77
2021/10/17 11:39:59;;;;;;;17.37;13.60;;;;;;;;;;5021031;28;20709;-77
2021/10/17 11:43:06;;;;;;;15.73;13.90;;;;;;;;;;5033220;28;20188;-77
2021/10/17 11:46:15;;;;;;;17.83;14.37;;;;;;;;;;5021359;28;20192;-77
2021/10/17 11:49:20;;;;;;;18.30;14.47;;;;;;;;;;5033424;28;20196;-77
2021/10/17 11:52:24;;;;;;;16.43;13.60;;;;;;;;;;5020714;28;20232;-77
2021/10/17 11:55:35;;;;;;;18.10;14.53;;;;;;;;;;5020729;28;20223;-76
2021/10/17 11:58:41;;;;;;;16.83;14.33;;;;;;;;;;5021124;28;20200;-77
2021/10/17 12:01:45;;;;;;;18.73;15.50;;;;;;;;;;5033107;28;20722;-77
2021/10/17 12:04:50;;;;;;;16.40;14.37;;;;;;;;;;5033000;28;20191;-77
2021/10/17 12:07:58;;;;;;;21.07;14.83;;;;;;;;;;5032911;28;20203;-77
2021/10/17 12:11:04;;;;;;;17.33;14.13;;;;;;;;;;5032516;28;20231;-77
2021/10/17 12:14:29;;;;;;;19.13;15.53;;;;;;;;;;5033194;28;20651;-77
2021/10/17 12:17:34;;;;;;;22.40;15.00;;;;;;;;;;5020892;28;20674;-77
2021/10/17 12:20:38;;;;;;;17.50;15.57;;;;;;;;;;5032575;28;20607;-76
2021/10/17 12:23:45;;;;;;;17.33;13.93;;;;;;;;;;5032797;28;20184;-77
2021/10/17 12:26:58;;;;;;;18.27;14.67;;;;;;;;;;5022803;28;20188;-77
2021/10/17 12:30:08;;;;;;;15.77;13.20;;;;;;;;;;5036714;28;20192;-77
2021/10/17 12:33:23;;;;;;;18.03;15.10;;;;;;;;;;5036603;28;20224;-77
2021/10/17 12:36:27;;;;;;;18.37;15.90;;;;;;;;;;5024402;28;20211;-76
2021/10/17 12:39:31;;;;;;;19.37;15.37;;;;;;;;;;5036508;28;20200;-77
2021/10/17 12:42:58;;;;;;;18.93;14.57;;;;;;;;;;5013020;28;20220;-77
2021/10/17 12:46:22;;;;;;;16.63;14.17;;;;;;;;;;5024430;28;20192;-77
2021/10/17 12:49:36;;;;;;;17.17;14.73;;;;;;;;;;5036911;28;20200;-77
2021/10/17 12:52:51;;;;;;;14.90;13.27;;;;;;;;;;5036884;28;20782;-77
2021/10/17 12:55:58;;;;;;;19.83;14.60;;;;;;;;;;5012684;28;20212;-77
2021/10/17 12:59:13;;;;;;;19.53;14.47;;;;;;;;;;5024236;28;20200;-77
2021/10/17 13:02:17;;;;;;;15.17;13.57;;;;;;;;;;5023833;28;20224;-77
2021/10/17 13:05:24;;;;;;;14.77;13.17;;;;;;;;;;5036243;28;20191;-77
2021/10/17 13:08:29;;;;;;;15.80;13.40;;;;;;;;;;5023894;28;20195;-77
2021/10/17 13:11:36;;;;;;;14.53;12.63;;;;;;;;;;5036070;28;20227;-76
2021/10/17 13:15:02;;;;;;;16.13;12.70;;;;;;;;;;5035276;28;20184;-77
2021/10/17 13:18:07;;;;;;;14.43;12.93;;;;;;;;;;5023518;28;20196;-77
2021/10/17 13:21:11;;;;;;;14.33;12.83;;;;;;;;;;5035898;28;20228;-76
2021/10/17 13:24:15;;;;;;;15.47;13.23;;;;;;;;;;5023615;28;20188;-77
2021/10/17 13:27:19;;;;;;;14.17;12.40;;;;;;;;;;5023702;28;20196;-77
2021/10/17 13:30:24;;;;;;;14.73;12.57;;;;;;;;;;5035563;28;20196;-77
2021/10/17 13:33:28;;;;;;;16.37;13.53;;;;;;;;;;5035747;28;20208;-77
2021/10/17 13:36:32;;;;;;;14.40;12.63;;;;;;;;;;5035441;28;20199;-77
2021/10/17 13:39:37;;;;;;;15.90;12.77;;;;;;;;;;5022594;28;20192;-77
2021/10/17 13:42:41;;;;;;;13.90;12.40;;;;;;;;;;5035328;28;20682;-77
2021/10/17 13:45:45;;;;;;;15.53;12.57;;;;;;;;;;5023363;28;20192;-77
2021/10/17 13:48:49;;;;;;;15.30;13.03;;;;;;;;;;5023312;28;20552;-77
2021/10/17 13:51:54;;;;;;;19.10;17.07;;;;;;;;;;5035370;28;20227;-77
2021/10/17 13:54:58;;;;;;;18.53;14.53;;;;;;;;;;5035033;28;20567;-77
2021/10/17 13:58:02;;;;;;;17.40;14.90;;;;;;;;;;5035346;28;20195;-77
2021/10/17 14:01:06;;;;;;;15.80;13.10;;;;;;;;;;5035088;28;20223;-77
2021/10/17 14:04:10;;;;;;;14.30;12.47;;;;;;;;;;5023100;28;20203;-76
2021/10/17 14:07:14;;;;;;;14.07;12.37;;;;;;;;;;5022919;28;20188;-77
2021/10/17 14:10:19;;;;;;;15.17;13.57;;;;;;;;;;5022885;28;20188;-77
2021/10/17 14:13:23;;;;;;;17.37;13.40;;;;;;;;;;5022822;28;20236;-77
2021/10/17 14:16:27;;;;;;;14.97;13.37;;;;;;;;;;5022828;28;20188;-77
2021/10/17 14:19:32;;;;;;;13.77;12.33;;;;;;;;;;5034708;28;20187;-77
2021/10/17 14:22:36;;;;;;;13.00;11.57;;;;;;;;;;5011274;28;20223;-77
2021/10/17 14:25:40;;;;;;;17.13;13.77;;;;;;;;;;5034837;28;20257;-77
2021/10/17 14:28:44;;;;;;;16.33;14.23;;;;;;;;;;5034479;28;20556;-77
2021/10/17 14:31:49;;;;;;;15.87;13.77;;;;;;;;;;5034578;28;20236;-77
2021/10/17 14:34:53;;;;;;;14.83;12.97;;;;;;;;;;5034652;28;20180;-77
2021/10/17 14:37:57;;;;;;;16.33;14.03;;;;;;;;;;5022219;28;20188;-76
2021/10/17 14:41:02;;;;;;;15.27;12.73;;;;;;;;;;5034168;28;20231;-77
2021/10/17 14:44:06;;;;;;;16.67;13.27;;;;;;;;;;5022313;28;20187;-76
2021/10/17 14:47:10;;;;;;;15.23;12.83;;;;;;;;;;5034204;28;20192;-77
2021/10/17 14:50:15;;;;;;;15.33;12.87;;;;;;;;;;5021369;28;20188;-77
2021/10/17 14:53:19;;;;;;;15.87;13.47;;;;;;;;;;5021989;28;20223;-77
2021/10/17 14:56:23;;;;;;;16.83;13.90;;;;;;;;;;5034065;23;20243;-73
2021/10/17 14:59:27;;;;;;;16.17;13.90;;;;;;;;;;5002173;28;20188;-72
2021/10/17 15:02:32;;;;;;;16.83;13.60;;;;;;;;;;4982614;28;20229;-73
2021/10/17 15:05:36;;;;;;;14.17;12.43;;;;;;;;;;4991649;28;20205;-73
2021/10/17 15:08:40;;;;;;;16.60;13.97;;;;;;;;;;4982409;28;20193;-73
2021/10/17 15:11:44;;;;;;;19.00;14.03;;;;;;;;;;4986087;28;20229;-73
2021/10/17 15:14:48;;;;;;;19.03;14.57;;;;;;;;;;4993295;28;20220;-72
2021/10/17 15:17:52;;;;;;;16.10;14.03;;;;;;;;;;4988901;28;20201;-73
2021/10/17 15:20:56;;;;;;;15.77;13.73;;;;;;;;;;4994313;28;20241;-73
2021/10/17 15:24:02;;;;;;;15.00;13.40;;;;;;;;;;4979303;28;20193;-73
2021/10/17 15:27:06;;;;;;;15.60;13.53;;;;;;;;;;4977880;28;20201;-73
2021/10/17 15:30:13;;;;;;;16.07;13.70;;;;;;;;;;4986860;28;20201;-73
2021/10/17 15:33:19;;;;;;;17.87;14.87;;;;;;;;;;4990132;28;20605;-73
2021/10/17 15:36:24;;;;;;;17.80;15.23;;;;;;;;;;4990008;28;20213;-73
2021/10/17 15:39:28;;;;;;;19.43;15.17;;;;;;;;;;4990167;28;20197;-73
2021/10/17 15:42:37;;;;;;;16.97;13.70;;;;;;;;;;4977720;28;20748;-73
2021/10/17 15:45:42;;;;;;;16.90;14.03;;;;;;;;;;4988928;28;20205;-73
2021/10/17 15:48:46;;;;;;;17.50;13.67;;;;;;;;;;4989422;28;20205;-73
2021/10/17 15:51:50;;;;;;;18.40;14.50;;;;;;;;;;4985177;28;20735;-73
2021/10/17 15:54:54;;;;;;;16.83;13.67;;;;;;;;;;4980503;28;20233;-73
2021/10/17 15:57:59;;;;;;;15.20;13.23;;;;;;;;;;4977949;28;20200;-73
2021/10/17 16:01:03;;;;;;;17.80;14.43;;;;;;;;;;4988307;28;20229;-73
2021/10/17 16:04:08;;;;;;;20.43;14.77;;;;;;;;;;4996783;28;20664;-73
2021/10/17 16:07:13;;;;;;;17.73;14.60;;;;;;;;;;4984535;28;20210;-73
2021/10/17 16:10:18;;;;;;;18.53;14.83;;;;;;;;;;4995795;28;20198;-72
2021/10/17 16:13:22;;;;;;;20.03;15.80;;;;;;;;;;4984227;28;20257;-72
2021/10/17 16:16:27;;;;;;;21.77;16.23;;;;;;;;;;4995718;28;20561;-72
2021/10/17 16:19:31;;;;;;;20.57;15.83;;;;;;;;;;4994836;28;20200;-72
2021/10/17 16:22:36;;;;;;;41.53;19.57;;;;;;;;;;4996041;28;20234;-72
2021/10/17 16:25:41;;;;;;;23.03;16.27;;;;;;;;;;4995958;28;20193;-72
2021/10/17 16:28:45;;;;;;;22.63;16.57;;;;;;;;;;4983789;28;20194;-72
2021/10/17 16:31:53;;;;;;;28.40;18.50;;;;;;;;;;4996025;28;20233;-75
2021/10/17 16:34:57;;;;;;;20.20;16.37;;;;;;;;;;4996573;28;20244;-72
2021/10/17 16:38:03;;;;;;;22.17;16.70;;;;;;;;;;4972724;28;20209;-72
2021/10/17 16:41:08;;;;;;;21.37;17.20;;;;;;;;;;4995643;28;20228;-73
2021/10/17 16:44:12;;;;;;;23.53;17.77;;;;;;;;;;4996210;28;20695;-74
2021/10/17 16:47:16;;;;;;;23.17;19.23;;;;;;;;;;4985357;28;20221;-73
2021/10/17 16:50:22;;;;;;;30.43;22.90;;;;;;;;;;4995725;28;20756;-75
2021/10/17 16:53:27;;;;;;;30.03;22.33;;;;;;;;;;4995772;28;20194;-73
2021/10/17 16:56:31;;;;;;;39.07;25.13;;;;;;;;;;4983931;28;20290;-72
2021/10/17 16:59:35;;;;;;;32.67;23.87;;;;;;;;;;4995896;28;20210;-72
2021/10/17 17:02:39;;;;;;;34.67;25.23;;;;;;;;;;4995532;28;20228;-72
2021/10/17 17:05:43;;;;;;;34.93;25.23;;;;;;;;;;4995753;28;20205;-72
2021/10/17 17:08:48;;;;;;;34.73;24.90;;;;;;;;;;4995670;28;20205;-74
2021/10/17 17:11:52;;;;;;;36.60;25.30;;;;;;;;;;4983655;28;20232;-74
2021/10/17 17:14:59;;;;;;;38.47;27.43;;;;;;;;;;4991961;28;20572;-74
2021/10/17 17:18:03;;;;;;;37.57;26.30;;;;;;;;;;4991535;28;20205;-72
2021/10/17 17:21:07;;;;;;;39.80;26.63;;;;;;;;;;4969170;28;20225;-74
2021/10/17 17:24:12;;;;;;;35.77;25.23;;;;;;;;;;4973230;28;20190;-74
2021/10/17 17:27:16;;;;;;;37.10;26.13;;;;;;;;;;4973152;28;20565;-74
2021/10/17 17:30:22;;;;;;;37.77;26.33;;;;;;;;;;4972918;28;20199;-74
2021/10/17 17:33:26;;;;;;;35.87;25.67;;;;;;;;;;4989777;28;20207;-74
2021/10/17 17:36:30;;;;;;;37.60;27.13;;;;;;;;;;4992189;28;20205;-74
2021/10/17 17:39:35;;;;;;;37.50;26.30;;;;;;;;;;4980550;28;20193;-73
2021/10/17 17:42:39;;;;;;;35.40;25.93;;;;;;;;;;4992118;28;20231;-74
2021/10/17 17:45:44;;;;;;;37.80;26.67;;;;;;;;;;4991945;28;20704;-73
2021/10/17 17:48:48;;;;;;;37.77;27.07;;;;;;;;;;4980387;28;20561;-74
2021/10/17 17:51:53;;;;;;;33.80;25.33;;;;;;;;;;4979673;28;20236;-73
2021/10/17 17:54:57;;;;;;;34.00;24.23;;;;;;;;;;4992165;28;20714;-75
2021/10/17 17:58:01;;;;;;;34.70;24.33;;;;;;;;;;4991632;28;20198;-74
2021/10/17 18:01:06;;;;;;;44.30;24.87;;;;;;;;;;4991272;28;20228;-74
2021/10/17 18:04:12;;;;;;;33.47;23.47;;;;;;;;;;4991552;28;20211;-74
2021/10/17 18:07:16;;;;;;;36.07;25.37;;;;;;;;;;4991727;28;20209;-74
2021/10/17 18:10:21;;;;;;;32.37;22.97;;;;;;;;;;4991122;28;20217;-74